หน้าหลัก
METAR-TAF:

METAR-TAF

ท่าอากาศยาน :

แท่นขุดเจาะน้ำมัน

K13-a, เนเธอร์แลนด์

ละติจูด: 53-13-04N, ลองจิจูด: 3-13-13E, ความสูง: 31 ม.

การสังเกตสภาพอากาศปัจจุบัน

รายงานได้ทำขึ้นเมื่อ 33 นาทีที่แล้ว ณ เวลา 01:25 UTC
ลม 11 นอตจากเหนือ/ตะวันออกเฉียงเหนือ
อุณหภูมิ 14°C
ความชื้น 88%
ความกดอากาศ 1017 hPa

METAR: EHJR 190125Z AUTO 02011KT //// // ///////// 14/12 Q1017 RE// W14/H6

เวลา: 03:58 (01:58 UTC)


TAF: หายไป

สังเกตการณ์สภาพอากาศและพยากรณ์อากาศของสนามบินมากกว่า 4000 แห่ง (รายงาน METAR และ TAF).

สถานีที่ดูได้จะแสดงไว้ด้วยจุดสีเหลืองและสีแดงบนแผนที่.

เลื่อนเมาส์ไปเหนือจุดเพื่อดูชื่อสถานี.

แล้วคลิกเพื่อดูสังเกตการณ์และการพยากรณ์สภาพอากาศ.

ในการเปลี่ยนแผนที่: คลิกที่ปุ่มสีเขียวที่มีกากบาทสีดำเพื่อซูมเข้า; ที่ปุ่มสีเขียวที่มีขีดเพื่อซูมออก; หรือที่ลูกศรสีเขียวเพื่อไปยังแผนที่ที่อยู่ติดกัน.


METAR-TAF: